sensor_id;sensor_type;location;lat;lon;timestamp;P1;durP1;ratioP1;P2;durP2;ratioP2
42904;SDS011;28550;51.228;4.528;2023-04-06T00:01:01;38.40;;;23.17;;
42904;SDS011;28550;51.228;4.528;2023-04-06T00:03:57;43.17;;;22.70;;
42904;SDS011;28550;51.228;4.528;2023-04-06T00:11:59;44.95;;;24.38;;
42904;SDS011;28550;51.228;4.528;2023-04-06T00:14:25;43.33;;;25.75;;
42904;SDS011;28550;51.228;4.528;2023-04-06T00:17:00;45.22;;;26.08;;
42904;SDS011;28550;51.228;4.528;2023-04-06T00:19:29;39.38;;;24.70;;
42904;SDS011;28550;51.228;4.528;2023-04-06T00:21:54;48.72;;;27.27;;
42904;SDS011;28550;51.228;4.528;2023-04-06T00:24:39;47.70;;;25.58;;
42904;SDS011;28550;51.228;4.528;2023-04-06T00:30:08;41.37;;;25.23;;
42904;SDS011;28550;51.228;4.528;2023-04-06T00:32:55;41.30;;;24.40;;
42904;SDS011;28550;51.228;4.528;2023-04-06T00:35:22;49.30;;;26.40;;
42904;SDS011;28550;51.228;4.528;2023-04-06T00:37:48;40.00;;;23.75;;
42904;SDS011;28550;51.228;4.528;2023-04-06T00:40:14;40.28;;;23.20;;
42904;SDS011;28550;51.228;4.528;2023-04-06T00:42:42;40.95;;;22.63;;
42904;SDS011;28550;51.228;4.528;2023-04-06T00:45:15;38.08;;;22.10;;
42904;SDS011;28550;51.228;4.528;2023-04-06T00:48:05;36.42;;;21.27;;
42904;SDS011;28550;51.228;4.528;2023-04-06T00:51:05;38.90;;;22.75;;
42904;SDS011;28550;51.228;4.528;2023-04-06T00:53:31;44.60;;;23.42;;
42904;SDS011;28550;51.228;4.528;2023-04-06T00:56:03;45.85;;;23.33;;
42904;SDS011;28550;51.228;4.528;2023-04-06T01:03:41;38.42;;;20.95;;
42904;SDS011;28550;51.228;4.528;2023-04-06T01:06:57;35.58;;;20.88;;
42904;SDS011;28550;51.228;4.528;2023-04-06T01:09:46;40.25;;;23.10;;
42904;SDS011;28550;51.228;4.528;2023-04-06T01:12:32;47.28;;;21.95;;
42904;SDS011;28550;51.228;4.528;2023-04-06T01:15:20;43.75;;;21.70;;
42904;SDS011;28550;51.228;4.528;2023-04-06T01:17:47;39.22;;;20.63;;
42904;SDS011;28550;51.228;4.528;2023-04-06T01:20:35;40.22;;;21.90;;
42904;SDS011;28550;51.228;4.528;2023-04-06T01:23:06;35.83;;;20.52;;
42904;SDS011;28550;51.228;4.528;2023-04-06T01:25:34;35.80;;;20.27;;
42904;SDS011;28550;51.228;4.528;2023-04-06T01:28:29;34.92;;;20.20;;
42904;SDS011;28550;51.228;4.528;2023-04-06T01:30:54;35.70;;;20.88;;
42904;SDS011;28550;51.228;4.528;2023-04-06T01:33:37;34.33;;;19.60;;
42904;SDS011;28550;51.228;4.528;2023-04-06T01:36:23;37.65;;;21.00;;
42904;SDS011;28550;51.228;4.528;2023-04-06T01:38:50;36.05;;;20.77;;
42904;SDS011;28550;51.228;4.528;2023-04-06T01:41:16;38.38;;;19.30;;
42904;SDS011;28550;51.228;4.528;2023-04-06T01:44:00;39.47;;;20.58;;
42904;SDS011;28550;51.228;4.528;2023-04-06T01:46:26;33.33;;;18.85;;
42904;SDS011;28550;51.228;4.528;2023-04-06T01:48:55;33.10;;;18.80;;
42904;SDS011;28550;51.228;4.528;2023-04-06T01:51:32;33.92;;;19.20;;
42904;SDS011;28550;51.228;4.528;2023-04-06T01:53:59;32.70;;;18.40;;
42904;SDS011;28550;51.228;4.528;2023-04-06T01:56:24;34.15;;;19.50;;
42904;SDS011;28550;51.228;4.528;2023-04-06T02:01:42;35.22;;;18.45;;
42904;SDS011;28550;51.228;4.528;2023-04-06T02:04:28;31.95;;;17.60;;
42904;SDS011;28550;51.228;4.528;2023-04-06T02:06:54;32.28;;;18.48;;
42904;SDS011;28550;51.228;4.528;2023-04-06T02:09:30;32.40;;;18.92;;
42904;SDS011;28550;51.228;4.528;2023-04-06T02:11:55;38.70;;;19.65;;
42904;SDS011;28550;51.228;4.528;2023-04-06T02:14:24;33.40;;;17.60;;
42904;SDS011;28550;51.228;4.528;2023-04-06T02:16:52;33.92;;;17.52;;
42904;SDS011;28550;51.228;4.528;2023-04-06T02:19:18;28.30;;;17.30;;
42904;SDS011;28550;51.228;4.528;2023-04-06T02:24:35;31.25;;;17.90;;
42904;SDS011;28550;51.228;4.528;2023-04-06T02:27:07;30.45;;;17.80;;
42904;SDS011;28550;51.228;4.528;2023-04-06T02:29:43;35.08;;;19.15;;
42904;SDS011;28550;51.228;4.528;2023-04-06T02:32:10;30.67;;;17.90;;
42904;SDS011;28550;51.228;4.528;2023-04-06T02:34:44;31.58;;;17.88;;
42904;SDS011;28550;51.228;4.528;2023-04-06T02:37:10;28.95;;;16.70;;
42904;SDS011;28550;51.228;4.528;2023-04-06T02:40:13;34.67;;;19.45;;
42904;SDS011;28550;51.228;4.528;2023-04-06T02:42:45;37.30;;;18.10;;
42904;SDS011;28550;51.228;4.528;2023-04-06T02:45:14;28.73;;;18.05;;
42904;SDS011;28550;51.228;4.528;2023-04-06T02:47:51;34.80;;;18.90;;
42904;SDS011;28550;51.228;4.528;2023-04-06T02:50:23;34.60;;;17.73;;
42904;SDS011;28550;51.228;4.528;2023-04-06T02:52:52;34.22;;;19.17;;
42904;SDS011;28550;51.228;4.528;2023-04-06T02:55:18;38.85;;;18.85;;
42904;SDS011;28550;51.228;4.528;2023-04-06T02:57:44;32.55;;;18.55;;
42904;SDS011;28550;51.228;4.528;2023-04-06T03:00:12;38.38;;;19.60;;
42904;SDS011;28550;51.228;4.528;2023-04-06T03:02:59;33.85;;;18.63;;
42904;SDS011;28550;51.228;4.528;2023-04-06T03:05:25;32.72;;;17.50;;
42904;SDS011;28550;51.228;4.528;2023-04-06T03:07:56;37.10;;;19.42;;
42904;SDS011;28550;51.228;4.528;2023-04-06T03:10:36;32.63;;;18.27;;
42904;SDS011;28550;51.228;4.528;2023-04-06T03:13:40;32.20;;;17.70;;
42904;SDS011;28550;51.228;4.528;2023-04-06T03:16:06;30.77;;;18.25;;
42904;SDS011;28550;51.228;4.528;2023-04-06T03:18:50;34.00;;;17.52;;
42904;SDS011;28550;51.228;4.528;2023-04-06T03:23:44;30.92;;;17.20;;
42904;SDS011;28550;51.228;4.528;2023-04-06T03:26:20;28.85;;;18.30;;
42904;SDS011;28550;51.228;4.528;2023-04-06T03:29:01;34.40;;;17.55;;
42904;SDS011;28550;51.228;4.528;2023-04-06T03:31:55;34.55;;;17.65;;
42904;SDS011;28550;51.228;4.528;2023-04-06T03:34:24;33.92;;;18.15;;
42904;SDS011;28550;51.228;4.528;2023-04-06T03:39:53;32.80;;;18.05;;
42904;SDS011;28550;51.228;4.528;2023-04-06T03:42:24;31.55;;;18.55;;
42904;SDS011;28550;51.228;4.528;2023-04-06T03:45:12;31.20;;;18.27;;
42904;SDS011;28550;51.228;4.528;2023-04-06T03:47:46;28.23;;;17.63;;
42904;SDS011;28550;51.228;4.528;2023-04-06T03:50:12;31.05;;;18.02;;
42904;SDS011;28550;51.228;4.528;2023-04-06T03:52:57;35.63;;;19.50;;
42904;SDS011;28550;51.228;4.528;2023-04-06T03:55:33;30.10;;;17.65;;
42904;SDS011;28550;51.228;4.528;2023-04-06T03:58:10;36.33;;;18.48;;
42904;SDS011;28550;51.228;4.528;2023-04-06T04:01:02;35.25;;;19.23;;
42904;SDS011;28550;51.228;4.528;2023-04-06T04:03:28;34.17;;;19.63;;
42904;SDS011;28550;51.228;4.528;2023-04-06T04:05:58;34.13;;;18.92;;
42904;SDS011;28550;51.228;4.528;2023-04-06T04:08:26;34.45;;;19.23;;
42904;SDS011;28550;51.228;4.528;2023-04-06T04:11:18;33.80;;;19.33;;
42904;SDS011;28550;51.228;4.528;2023-04-06T04:14:01;29.98;;;17.52;;
42904;SDS011;28550;51.228;4.528;2023-04-06T04:16:37;34.67;;;19.35;;
42904;SDS011;28550;51.228;4.528;2023-04-06T04:19:07;33.75;;;18.63;;
42904;SDS011;28550;51.228;4.528;2023-04-06T04:24:52;32.53;;;19.05;;
42904;SDS011;28550;51.228;4.528;2023-04-06T04:27:54;35.42;;;19.45;;
42904;SDS011;28550;51.228;4.528;2023-04-06T04:30:20;34.65;;;19.33;;
42904;SDS011;28550;51.228;4.528;2023-04-06T04:32:48;34.60;;;19.10;;
42904;SDS011;28550;51.228;4.528;2023-04-06T04:35:38;31.80;;;19.30;;
42904;SDS011;28550;51.228;4.528;2023-04-06T04:38:13;33.47;;;19.35;;
42904;SDS011;28550;51.228;4.528;2023-04-06T04:41:05;32.70;;;19.17;;
42904;SDS011;28550;51.228;4.528;2023-04-06T04:46:54;32.80;;;17.75;;
42904;SDS011;28550;51.228;4.528;2023-04-06T04:49:19;30.77;;;17.42;;
42904;SDS011;28550;51.228;4.528;2023-04-06T04:51:48;32.03;;;17.52;;
42904;SDS011;28550;51.228;4.528;2023-04-06T04:54:26;30.90;;;17.63;;
42904;SDS011;28550;51.228;4.528;2023-04-06T04:57:17;32.17;;;17.40;;
42904;SDS011;28550;51.228;4.528;2023-04-06T05:00:28;31.27;;;17.63;;
42904;SDS011;28550;51.228;4.528;2023-04-06T05:02:40;29.55;;;16.00;;
42904;SDS011;28550;51.228;4.528;2023-04-06T05:05:18;59.30;;;21.63;;
42904;SDS011;28550;51.228;4.528;2023-04-06T05:07:54;38.60;;;17.13;;
42904;SDS011;28550;51.228;4.528;2023-04-06T05:13:45;27.98;;;15.57;;
42904;SDS011;28550;51.228;4.528;2023-04-06T05:16:32;38.28;;;18.95;;
42904;SDS011;28550;51.228;4.528;2023-04-06T05:19:05;34.57;;;19.50;;
42904;SDS011;28550;51.228;4.528;2023-04-06T05:24:42;30.85;;;18.13;;
42904;SDS011;28550;51.228;4.528;2023-04-06T05:27:25;31.95;;;17.60;;
42904;SDS011;28550;51.228;4.528;2023-04-06T05:29:53;32.55;;;18.27;;
42904;SDS011;28550;51.228;4.528;2023-04-06T05:32:22;32.92;;;18.20;;
42904;SDS011;28550;51.228;4.528;2023-04-06T05:34:49;35.80;;;19.17;;
42904;SDS011;28550;51.228;4.528;2023-04-06T05:37:15;30.30;;;17.95;;
42904;SDS011;28550;51.228;4.528;2023-04-06T05:39:44;32.88;;;17.77;;
42904;SDS011;28550;51.228;4.528;2023-04-06T05:42:50;27.88;;;17.15;;
42904;SDS011;28550;51.228;4.528;2023-04-06T05:45:40;30.15;;;17.65;;
42904;SDS011;28550;51.228;4.528;2023-04-06T05:48:23;32.63;;;17.80;;
42904;SDS011;28550;51.228;4.528;2023-04-06T06:00:08;33.60;;;17.73;;
42904;SDS011;28550;51.228;4.528;2023-04-06T06:02:43;23.13;;;13.60;;
42904;SDS011;28550;51.228;4.528;2023-04-06T06:05:16;28.45;;;16.13;;
42904;SDS011;28550;51.228;4.528;2023-04-06T06:10:39;30.77;;;16.95;;
42904;SDS011;28550;51.228;4.528;2023-04-06T06:13:06;30.25;;;17.35;;
42904;SDS011;28550;51.228;4.528;2023-04-06T06:18:31;27.63;;;16.35;;
42904;SDS011;28550;51.228;4.528;2023-04-06T06:21:02;33.08;;;17.67;;
42904;SDS011;28550;51.228;4.528;2023-04-06T06:24:00;31.63;;;16.92;;
42904;SDS011;28550;51.228;4.528;2023-04-06T06:26:29;30.73;;;16.95;;
42904;SDS011;28550;51.228;4.528;2023-04-06T06:32:10;32.42;;;18.60;;
42904;SDS011;28550;51.228;4.528;2023-04-06T06:35:14;35.88;;;18.00;;
42904;SDS011;28550;51.228;4.528;2023-04-06T06:37:43;35.22;;;17.60;;
42904;SDS011;28550;51.228;4.528;2023-04-06T06:40:12;35.13;;;18.00;;
42904;SDS011;28550;51.228;4.528;2023-04-06T06:42:40;32.88;;;18.95;;
42904;SDS011;28550;51.228;4.528;2023-04-06T06:45:15;32.05;;;17.95;;
42904;SDS011;28550;51.228;4.528;2023-04-06T06:47:40;38.35;;;18.98;;
42904;SDS011;28550;51.228;4.528;2023-04-06T06:50:07;36.72;;;19.33;;
42904;SDS011;28550;51.228;4.528;2023-04-06T06:52:33;40.90;;;20.50;;
42904;SDS011;28550;51.228;4.528;2023-04-06T06:55:07;34.50;;;20.52;;
42904;SDS011;28550;51.228;4.528;2023-04-06T06:57:37;33.88;;;19.42;;
42904;SDS011;28550;51.228;4.528;2023-04-06T07:00:07;41.80;;;20.77;;
42904;SDS011;28550;51.228;4.528;2023-04-06T07:05:27;35.53;;;21.42;;
42904;SDS011;28550;51.228;4.528;2023-04-06T07:10:42;43.67;;;22.90;;
42904;SDS011;28550;51.228;4.528;2023-04-06T07:13:29;41.83;;;23.83;;
42904;SDS011;28550;51.228;4.528;2023-04-06T07:16:29;40.78;;;22.00;;
42904;SDS011;28550;51.228;4.528;2023-04-06T07:19:43;37.72;;;23.00;;
42904;SDS011;28550;51.228;4.528;2023-04-06T07:22:43;41.15;;;25.13;;
42904;SDS011;28550;51.228;4.528;2023-04-06T07:25:13;50.10;;;25.33;;
42904;SDS011;28550;51.228;4.528;2023-04-06T07:27:48;51.92;;;26.35;;
42904;SDS011;28550;51.228;4.528;2023-04-06T07:30:23;47.95;;;26.10;;
42904;SDS011;28550;51.228;4.528;2023-04-06T07:32:53;51.63;;;26.67;;
42904;SDS011;28550;51.228;4.528;2023-04-06T07:35:31;46.35;;;26.40;;
42904;SDS011;28550;51.228;4.528;2023-04-06T07:38:50;50.90;;;28.48;;
42904;SDS011;28550;51.228;4.528;2023-04-06T07:41:31;53.80;;;27.42;;
42904;SDS011;28550;51.228;4.528;2023-04-06T07:43:59;42.58;;;23.95;;
42904;SDS011;28550;51.228;4.528;2023-04-06T07:46:30;47.05;;;26.50;;
42904;SDS011;28550;51.228;4.528;2023-04-06T07:49:01;43.65;;;25.30;;
42904;SDS011;28550;51.228;4.528;2023-04-06T07:51:29;42.00;;;23.15;;
42904;SDS011;28550;51.228;4.528;2023-04-06T07:53:56;44.05;;;24.05;;
42904;SDS011;28550;51.228;4.528;2023-04-06T07:56:22;42.50;;;23.45;;
42904;SDS011;28550;51.228;4.528;2023-04-06T07:58:48;39.58;;;23.23;;
42904;SDS011;28550;51.228;4.528;2023-04-06T08:01:46;33.75;;;20.98;;
42904;SDS011;28550;51.228;4.528;2023-04-06T08:06:58;42.88;;;23.27;;
42904;SDS011;28550;51.228;4.528;2023-04-06T08:09:27;45.67;;;22.75;;
42904;SDS011;28550;51.228;4.528;2023-04-06T08:11:53;38.78;;;22.25;;
42904;SDS011;28550;51.228;4.528;2023-04-06T08:14:21;38.22;;;21.40;;
42904;SDS011;28550;51.228;4.528;2023-04-06T08:16:47;39.33;;;22.70;;
42904;SDS011;28550;51.228;4.528;2023-04-06T08:19:12;42.05;;;21.58;;
42904;SDS011;28550;51.228;4.528;2023-04-06T08:21:42;38.63;;;20.73;;
42904;SDS011;28550;51.228;4.528;2023-04-06T08:24:08;32.25;;;19.70;;
42904;SDS011;28550;51.228;4.528;2023-04-06T08:26:36;31.05;;;18.98;;
42904;SDS011;28550;51.228;4.528;2023-04-06T08:29:02;32.58;;;18.40;;
42904;SDS011;28550;51.228;4.528;2023-04-06T08:31:29;36.83;;;19.60;;
42904;SDS011;28550;51.228;4.528;2023-04-06T08:34:13;30.02;;;17.88;;
42904;SDS011;28550;51.228;4.528;2023-04-06T08:36:42;28.58;;;17.13;;
42904;SDS011;28550;51.228;4.528;2023-04-06T08:39:09;29.65;;;17.70;;
42904;SDS011;28550;51.228;4.528;2023-04-06T08:41:35;25.90;;;15.15;;
42904;SDS011;28550;51.228;4.528;2023-04-06T08:44:01;28.90;;;16.48;;
42904;SDS011;28550;51.228;4.528;2023-04-06T08:46:30;32.20;;;16.45;;
42904;SDS011;28550;51.228;4.528;2023-04-06T08:48:57;29.77;;;16.73;;
42904;SDS011;28550;51.228;4.528;2023-04-06T08:51:24;28.50;;;16.70;;
42904;SDS011;28550;51.228;4.528;2023-04-06T08:53:57;24.25;;;15.13;;
42904;SDS011;28550;51.228;4.528;2023-04-06T08:56:26;30.33;;;15.32;;
42904;SDS011;28550;51.228;4.528;2023-04-06T08:58:53;30.83;;;16.02;;
42904;SDS011;28550;51.228;4.528;2023-04-06T09:01:20;24.67;;;16.52;;
42904;SDS011;28550;51.228;4.528;2023-04-06T09:03:49;28.55;;;16.73;;
42904;SDS011;28550;51.228;4.528;2023-04-06T09:06:15;26.23;;;16.17;;
42904;SDS011;28550;51.228;4.528;2023-04-06T09:08:42;29.02;;;16.88;;
42904;SDS011;28550;51.228;4.528;2023-04-06T09:11:08;28.98;;;16.73;;
42904;SDS011;28550;51.228;4.528;2023-04-06T09:14:03;27.98;;;16.38;;
42904;SDS011;28550;51.228;4.528;2023-04-06T09:16:38;28.90;;;16.88;;
42904;SDS011;28550;51.228;4.528;2023-04-06T09:19:07;30.45;;;16.20;;
42904;SDS011;28550;51.228;4.528;2023-04-06T09:24:17;27.73;;;15.02;;
42904;SDS011;28550;51.228;4.528;2023-04-06T09:26:50;30.27;;;15.77;;
42904;SDS011;28550;51.228;4.528;2023-04-06T09:29:24;27.42;;;15.52;;
42904;SDS011;28550;51.228;4.528;2023-04-06T09:31:51;22.95;;;14.00;;
42904;SDS011;28550;51.228;4.528;2023-04-06T09:34:23;21.92;;;12.75;;
42904;SDS011;28550;51.228;4.528;2023-04-06T09:36:59;19.83;;;12.40;;
42904;SDS011;28550;51.228;4.528;2023-04-06T09:39:25;18.60;;;12.38;;
42904;SDS011;28550;51.228;4.528;2023-04-06T09:41:52;17.17;;;10.85;;
42904;SDS011;28550;51.228;4.528;2023-04-06T09:44:19;19.75;;;10.80;;
42904;SDS011;28550;51.228;4.528;2023-04-06T09:46:45;17.02;;;10.23;;
42904;SDS011;28550;51.228;4.528;2023-04-06T09:49:34;20.10;;;10.50;;
42904;SDS011;28550;51.228;4.528;2023-04-06T09:52:03;20.75;;;11.07;;
42904;SDS011;28550;51.228;4.528;2023-04-06T09:54:33;18.13;;;10.15;;
42904;SDS011;28550;51.228;4.528;2023-04-06T09:59:43;17.02;;;10.32;;
42904;SDS011;28550;51.228;4.528;2023-04-06T10:02:18;21.17;;;10.68;;
42904;SDS011;28550;51.228;4.528;2023-04-06T10:05:02;18.48;;;11.50;;
42904;SDS011;28550;51.228;4.528;2023-04-06T10:07:34;20.35;;;11.32;;
42904;SDS011;28550;51.228;4.528;2023-04-06T10:10:02;21.05;;;11.63;;
42904;SDS011;28550;51.228;4.528;2023-04-06T10:15:29;22.10;;;12.18;;
42904;SDS011;28550;51.228;4.528;2023-04-06T10:17:56;20.63;;;11.95;;
42904;SDS011;28550;51.228;4.528;2023-04-06T10:25:38;25.48;;;13.05;;
42904;SDS011;28550;51.228;4.528;2023-04-06T10:28:06;18.30;;;11.85;;
42904;SDS011;28550;51.228;4.528;2023-04-06T10:36:21;23.45;;;13.70;;
42904;SDS011;28550;51.228;4.528;2023-04-06T10:38:54;24.48;;;13.55;;
42904;SDS011;28550;51.228;4.528;2023-04-06T10:49:18;26.75;;;14.38;;
42904;SDS011;28550;51.228;4.528;2023-04-06T10:52:03;24.58;;;14.77;;
42904;SDS011;28550;51.228;4.528;2023-04-06T10:54:31;25.00;;;14.00;;
42904;SDS011;28550;51.228;4.528;2023-04-06T10:57:00;25.17;;;15.13;;
42904;SDS011;28550;51.228;4.528;2023-04-06T10:59:41;23.20;;;14.25;;
42904;SDS011;28550;51.228;4.528;2023-04-06T11:02:18;25.73;;;15.57;;
42904;SDS011;28550;51.228;4.528;2023-04-06T11:04:53;23.88;;;15.90;;
42904;SDS011;28550;51.228;4.528;2023-04-06T11:07:26;26.50;;;16.20;;
42904;SDS011;28550;51.228;4.528;2023-04-06T11:10:02;22.67;;;14.23;;
42904;SDS011;28550;51.228;4.528;2023-04-06T11:12:35;24.88;;;15.00;;
42904;SDS011;28550;51.228;4.528;2023-04-06T11:22:57;26.55;;;15.02;;
42904;SDS011;28550;51.228;4.528;2023-04-06T11:25:25;25.48;;;14.18;;
42904;SDS011;28550;51.228;4.528;2023-04-06T11:27:57;26.73;;;16.20;;
42904;SDS011;28550;51.228;4.528;2023-04-06T11:30:27;25.88;;;16.02;;
42904;SDS011;28550;51.228;4.528;2023-04-06T11:33:00;27.98;;;15.25;;
42904;SDS011;28550;51.228;4.528;2023-04-06T11:35:32;25.85;;;15.63;;
42904;SDS011;28550;51.228;4.528;2023-04-06T11:38:02;24.67;;;15.10;;
42904;SDS011;28550;51.228;4.528;2023-04-06T11:40:31;25.20;;;15.85;;
42904;SDS011;28550;51.228;4.528;2023-04-06T11:42:58;25.85;;;15.05;;
42904;SDS011;28550;51.228;4.528;2023-04-06T11:45:24;29.92;;;16.25;;
42904;SDS011;28550;51.228;4.528;2023-04-06T11:47:57;26.15;;;15.43;;
42904;SDS011;28550;51.228;4.528;2023-04-06T11:50:24;28.08;;;16.75;;
42904;SDS011;28550;51.228;4.528;2023-04-06T11:53:00;27.77;;;17.13;;
42904;SDS011;28550;51.228;4.528;2023-04-06T11:55:36;28.15;;;18.10;;
42904;SDS011;28550;51.228;4.528;2023-04-06T11:58:03;28.65;;;15.77;;
42904;SDS011;28550;51.228;4.528;2023-04-06T12:00:35;28.85;;;16.52;;
42904;SDS011;28550;51.228;4.528;2023-04-06T12:05:52;29.00;;;18.30;;
42904;SDS011;28550;51.228;4.528;2023-04-06T12:08:18;32.78;;;16.60;;
42904;SDS011;28550;51.228;4.528;2023-04-06T12:10:53;32.35;;;16.73;;
42904;SDS011;28550;51.228;4.528;2023-04-06T12:13:19;33.20;;;18.83;;
42904;SDS011;28550;51.228;4.528;2023-04-06T12:15:46;30.48;;;17.63;;
42904;SDS011;28550;51.228;4.528;2023-04-06T12:21:40;32.25;;;17.10;;
42904;SDS011;28550;51.228;4.528;2023-04-06T12:24:26;31.55;;;17.77;;
42904;SDS011;28550;51.228;4.528;2023-04-06T12:27:06;29.08;;;19.65;;
42904;SDS011;28550;51.228;4.528;2023-04-06T12:29:32;36.58;;;19.85;;
42904;SDS011;28550;51.228;4.528;2023-04-06T12:31:57;35.38;;;19.65;;
42904;SDS011;28550;51.228;4.528;2023-04-06T12:34:26;28.90;;;18.05;;
42904;SDS011;28550;51.228;4.528;2023-04-06T12:36:52;31.73;;;19.60;;
42904;SDS011;28550;51.228;4.528;2023-04-06T12:39:18;31.17;;;18.73;;
42904;SDS011;28550;51.228;4.528;2023-04-06T12:41:44;29.88;;;18.60;;
42904;SDS011;28550;51.228;4.528;2023-04-06T12:46:51;31.17;;;18.58;;
42904;SDS011;28550;51.228;4.528;2023-04-06T12:49:17;30.30;;;18.58;;
42904;SDS011;28550;51.228;4.528;2023-04-06T12:51:44;29.17;;;18.65;;
42904;SDS011;28550;51.228;4.528;2023-04-06T12:54:25;27.42;;;17.17;;
42904;SDS011;28550;51.228;4.528;2023-04-06T12:56:52;25.50;;;15.85;;
42904;SDS011;28550;51.228;4.528;2023-04-06T12:59:31;29.40;;;17.83;;
42904;SDS011;28550;51.228;4.528;2023-04-06T13:02:12;29.30;;;16.92;;
42904;SDS011;28550;51.228;4.528;2023-04-06T13:04:48;33.63;;;18.65;;
42904;SDS011;28550;51.228;4.528;2023-04-06T13:07:14;26.58;;;17.30;;
42904;SDS011;28550;51.228;4.528;2023-04-06T13:09:55;24.75;;;16.08;;
42904;SDS011;28550;51.228;4.528;2023-04-06T13:12:36;26.33;;;16.55;;
42904;SDS011;28550;51.228;4.528;2023-04-06T13:15:02;25.00;;;16.70;;
42904;SDS011;28550;51.228;4.528;2023-04-06T13:17:28;26.02;;;16.95;;
42904;SDS011;28550;51.228;4.528;2023-04-06T13:20:06;24.35;;;16.33;;
42904;SDS011;28550;51.228;4.528;2023-04-06T13:23:11;25.88;;;16.35;;
42904;SDS011;28550;51.228;4.528;2023-04-06T13:28:58;26.73;;;15.47;;
42904;SDS011;28550;51.228;4.528;2023-04-06T13:31:53;26.20;;;16.67;;
42904;SDS011;28550;51.228;4.528;2023-04-06T13:37:27;25.85;;;16.65;;
42904;SDS011;28550;51.228;4.528;2023-04-06T13:39:53;27.52;;;17.52;;
42904;SDS011;28550;51.228;4.528;2023-04-06T13:44:57;29.17;;;18.17;;
42904;SDS011;28550;51.228;4.528;2023-04-06T13:47:29;32.53;;;18.48;;
42904;SDS011;28550;51.228;4.528;2023-04-06T13:49:55;25.83;;;17.20;;
42904;SDS011;28550;51.228;4.528;2023-04-06T13:52:21;25.20;;;16.75;;
42904;SDS011;28550;51.228;4.528;2023-04-06T13:54:48;27.15;;;16.17;;
42904;SDS011;28550;51.228;4.528;2023-04-06T13:57:15;30.20;;;18.85;;
42904;SDS011;28550;51.228;4.528;2023-04-06T13:59:42;27.08;;;17.60;;
42904;SDS011;28550;51.228;4.528;2023-04-06T14:02:08;26.92;;;18.98;;
42904;SDS011;28550;51.228;4.528;2023-04-06T14:04:35;31.80;;;19.15;;
42904;SDS011;28550;51.228;4.528;2023-04-06T14:07:01;30.40;;;17.73;;
42904;SDS011;28550;51.228;4.528;2023-04-06T14:09:28;26.35;;;17.30;;
42904;SDS011;28550;51.228;4.528;2023-04-06T14:11:55;23.73;;;15.88;;
42904;SDS011;28550;51.228;4.528;2023-04-06T14:14:21;26.88;;;16.90;;
42904;SDS011;28550;51.228;4.528;2023-04-06T14:16:47;28.48;;;18.38;;
42904;SDS011;28550;51.228;4.528;2023-04-06T14:19:15;27.90;;;17.17;;
42904;SDS011;28550;51.228;4.528;2023-04-06T14:21:46;28.58;;;17.83;;
42904;SDS011;28550;51.228;4.528;2023-04-06T14:24:23;30.90;;;19.75;;
42904;SDS011;28550;51.228;4.528;2023-04-06T14:27:12;25.60;;;18.15;;
42904;SDS011;28550;51.228;4.528;2023-04-06T14:29:40;29.75;;;19.80;;
42904;SDS011;28550;51.228;4.528;2023-04-06T14:32:10;28.08;;;18.00;;
42904;SDS011;28550;51.228;4.528;2023-04-06T14:37:39;33.08;;;20.05;;
42904;SDS011;28550;51.228;4.528;2023-04-06T14:40:05;34.97;;;21.13;;
42904;SDS011;28550;51.228;4.528;2023-04-06T14:42:41;31.75;;;19.00;;
42904;SDS011;28550;51.228;4.528;2023-04-06T14:45:07;32.67;;;20.88;;
42904;SDS011;28550;51.228;4.528;2023-04-06T14:47:33;36.97;;;21.92;;
42904;SDS011;28550;51.228;4.528;2023-04-06T14:50:10;33.58;;;20.35;;
42904;SDS011;28550;51.228;4.528;2023-04-06T14:52:36;31.95;;;20.65;;
42904;SDS011;28550;51.228;4.528;2023-04-06T14:55:05;31.92;;;21.52;;
42904;SDS011;28550;51.228;4.528;2023-04-06T14:57:31;33.55;;;20.95;;
42904;SDS011;28550;51.228;4.528;2023-04-06T14:59:57;37.25;;;23.25;;
42904;SDS011;28550;51.228;4.528;2023-04-06T15:02:23;34.47;;;22.13;;
42904;SDS011;28550;51.228;4.528;2023-04-06T15:05:00;38.53;;;24.05;;
42904;SDS011;28550;51.228;4.528;2023-04-06T15:07:28;35.60;;;23.00;;
42904;SDS011;28550;51.228;4.528;2023-04-06T15:09:53;34.72;;;22.95;;
42904;SDS011;28550;51.228;4.528;2023-04-06T15:12:22;41.55;;;25.05;;
42904;SDS011;28550;51.228;4.528;2023-04-06T15:14:48;33.80;;;23.25;;
42904;SDS011;28550;51.228;4.528;2023-04-06T15:17:15;34.97;;;22.13;;
42904;SDS011;28550;51.228;4.528;2023-04-06T15:19:41;34.55;;;24.10;;
42904;SDS011;28550;51.228;4.528;2023-04-06T15:22:10;34.97;;;23.63;;
42904;SDS011;28550;51.228;4.528;2023-04-06T15:24:36;32.50;;;21.38;;
42904;SDS011;28550;51.228;4.528;2023-04-06T15:27:02;32.97;;;22.08;;
42904;SDS011;28550;51.228;4.528;2023-04-06T15:29:27;40.13;;;25.02;;
42904;SDS011;28550;51.228;4.528;2023-04-06T15:34:35;35.65;;;23.90;;
42904;SDS011;28550;51.228;4.528;2023-04-06T15:37:11;37.33;;;23.27;;
42904;SDS011;28550;51.228;4.528;2023-04-06T15:39:36;37.75;;;24.02;;
42904;SDS011;28550;51.228;4.528;2023-04-06T15:42:03;38.67;;;23.20;;
42904;SDS011;28550;51.228;4.528;2023-04-06T15:44:29;42.53;;;24.85;;
42904;SDS011;28550;51.228;4.528;2023-04-06T15:46:56;35.60;;;24.08;;
42904;SDS011;28550;51.228;4.528;2023-04-06T15:49:22;40.45;;;25.80;;
42904;SDS011;28550;51.228;4.528;2023-04-06T15:51:48;42.45;;;25.50;;
42904;SDS011;28550;51.228;4.528;2023-04-06T15:54:15;42.03;;;26.48;;
42904;SDS011;28550;51.228;4.528;2023-04-06T15:56:42;42.03;;;26.45;;
42904;SDS011;28550;51.228;4.528;2023-04-06T15:59:08;41.70;;;26.33;;
42904;SDS011;28550;51.228;4.528;2023-04-06T16:01:34;43.42;;;27.58;;
42904;SDS011;28550;51.228;4.528;2023-04-06T16:04:05;41.28;;;26.17;;
42904;SDS011;28550;51.228;4.528;2023-04-06T16:06:31;49.72;;;28.63;;
42904;SDS011;28550;51.228;4.528;2023-04-06T16:08:57;44.67;;;27.77;;
42904;SDS011;28550;51.228;4.528;2023-04-06T16:11:23;44.22;;;28.02;;
42904;SDS011;28550;51.228;4.528;2023-04-06T16:13:50;48.55;;;28.23;;
42904;SDS011;28550;51.228;4.528;2023-04-06T16:16:19;43.30;;;27.17;;
42904;SDS011;28550;51.228;4.528;2023-04-06T16:18:47;50.30;;;29.67;;
42904;SDS011;28550;51.228;4.528;2023-04-06T16:21:16;47.75;;;28.15;;
42904;SDS011;28550;51.228;4.528;2023-04-06T16:23:42;45.83;;;27.60;;
42904;SDS011;28550;51.228;4.528;2023-04-06T16:26:15;49.00;;;27.65;;
42904;SDS011;28550;51.228;4.528;2023-04-06T16:28:45;48.75;;;29.02;;
42904;SDS011;28550;51.228;4.528;2023-04-06T16:31:36;42.60;;;27.70;;
42904;SDS011;28550;51.228;4.528;2023-04-06T16:34:01;46.67;;;27.52;;
42904;SDS011;28550;51.228;4.528;2023-04-06T16:36:30;48.40;;;28.80;;
42904;SDS011;28550;51.228;4.528;2023-04-06T16:39:03;43.35;;;28.80;;
42904;SDS011;28550;51.228;4.528;2023-04-06T16:41:32;42.95;;;28.35;;
42904;SDS011;28550;51.228;4.528;2023-04-06T16:44:01;43.72;;;29.58;;
42904;SDS011;28550;51.228;4.528;2023-04-06T16:46:33;53.78;;;32.28;;
42904;SDS011;28550;51.228;4.528;2023-04-06T16:49:00;51.25;;;33.92;;
42904;SDS011;28550;51.228;4.528;2023-04-06T16:51:27;52.67;;;32.90;;
42904;SDS011;28550;51.228;4.528;2023-04-06T16:53:56;57.53;;;34.75;;
42904;SDS011;28550;51.228;4.528;2023-04-06T16:56:22;60.97;;;32.85;;